createdAt,value
2022-10-18T00:01:50.393Z,3.75
2022-10-18T00:04:36.574Z,3.63
2022-10-18T00:07:22.829Z,3.90
2022-10-18T00:10:10.546Z,3.40
2022-10-18T00:12:57.014Z,3.67
2022-10-18T00:15:49.893Z,3.78
2022-10-18T00:18:37.832Z,3.70
2022-10-18T00:21:26.138Z,4.00
2022-10-18T00:24:12.429Z,4.07
2022-10-18T00:26:58.986Z,3.90
2022-10-18T00:29:45.387Z,4.22
2022-10-18T00:32:32.358Z,4.20
2022-10-18T00:35:20.217Z,3.70
2022-10-18T00:38:06.531Z,3.92
2022-10-18T00:40:53.205Z,4.50
2022-10-18T00:43:54.115Z,4.43
2022-10-18T00:46:42.038Z,4.00
2022-10-18T00:49:32.075Z,4.00
2022-10-18T00:52:23.578Z,4.15
2022-10-18T00:55:11.245Z,4.07
2022-10-18T00:57:58.256Z,4.53
2022-10-18T01:00:44.788Z,4.30
2022-10-18T01:03:31.686Z,4.28
2022-10-18T01:06:17.920Z,5.13
2022-10-18T01:09:13.028Z,5.60
2022-10-18T01:12:12.900Z,5.20
2022-10-18T01:15:06.894Z,5.32
2022-10-18T01:18:02.678Z,5.35
2022-10-18T01:21:09.005Z,4.88
2022-10-18T01:24:21.461Z,5.30
2022-10-18T01:27:42.636Z,5.70
2022-10-18T01:30:44.213Z,5.43
2022-10-18T01:33:37.044Z,5.47
2022-10-18T01:36:26.885Z,5.85
2022-10-18T01:39:17.561Z,5.78
2022-10-18T01:42:07.740Z,5.75
2022-10-18T01:44:55.362Z,6.97
2022-10-18T01:47:45.390Z,6.50
2022-10-18T01:50:33.021Z,7.05
2022-10-18T01:53:37.296Z,6.35
2022-10-18T01:56:36.268Z,6.85
2022-10-18T01:59:34.368Z,6.93
2022-10-18T02:02:34.186Z,7.13
2022-10-18T02:05:29.572Z,8.23
2022-10-18T02:08:23.732Z,7.90
2022-10-18T02:11:12.425Z,8.10
2022-10-18T02:14:05.205Z,8.07
2022-10-18T02:16:54.785Z,9.18
2022-10-18T02:19:44.242Z,8.55
2022-10-18T02:22:34.578Z,7.60
2022-10-18T02:25:24.741Z,7.95
2022-10-18T02:28:11.187Z,9.32
2022-10-18T02:31:04.775Z,9.00
2022-10-18T02:33:56.674Z,8.63
2022-10-18T02:36:47.177Z,9.38
2022-10-18T02:39:37.718Z,8.60
2022-10-18T02:42:24.261Z,9.30
2022-10-18T02:45:11.936Z,10.70
2022-10-18T02:47:58.325Z,9.38
2022-10-18T02:50:44.737Z,9.90
2022-10-18T02:53:30.976Z,8.95
2022-10-18T02:56:19.020Z,9.82
2022-10-18T02:59:07.278Z,9.13
2022-10-18T03:01:53.888Z,9.05
2022-10-18T03:04:40.314Z,8.77
2022-10-18T03:07:26.861Z,9.65
2022-10-18T03:10:13.060Z,9.90
2022-10-18T03:13:01.178Z,10.07
2022-10-18T03:15:48.187Z,9.77
2022-10-18T03:18:34.694Z,10.40
2022-10-18T03:21:20.939Z,10.63
2022-10-18T03:24:07.931Z,11.88
2022-10-18T03:26:54.393Z,10.57
2022-10-18T03:29:42.404Z,10.93
2022-10-18T03:32:29.063Z,11.27
2022-10-18T03:35:15.308Z,11.60
2022-10-18T03:38:01.597Z,11.75
2022-10-18T03:40:48.353Z,11.88
2022-10-18T03:43:34.636Z,12.55
2022-10-18T03:46:22.581Z,11.98
2022-10-18T03:49:08.911Z,12.40
2022-10-18T03:51:55.289Z,11.95
2022-10-18T03:54:41.872Z,12.18
2022-10-18T03:57:28.465Z,13.25
2022-10-18T04:00:14.879Z,12.63
2022-10-18T04:03:02.701Z,12.48
2022-10-18T04:05:49.658Z,12.55
2022-10-18T04:08:36.082Z,12.85
2022-10-18T04:11:22.603Z,18.45
2022-10-18T04:14:09.339Z,14.82
2022-10-18T04:16:55.538Z,13.48
2022-10-18T04:19:43.405Z,12.00
2022-10-18T04:22:29.863Z,13.50
2022-10-18T04:25:16.814Z,14.20
2022-10-18T04:28:04.615Z,13.60
2022-10-18T04:30:52.381Z,14.00
2022-10-18T04:33:39.529Z,13.90
2022-10-18T04:36:27.406Z,13.40
2022-10-18T04:39:13.858Z,14.43
2022-10-18T04:42:00.259Z,14.52
2022-10-18T04:44:46.417Z,16.98
2022-10-18T04:47:33.131Z,15.55
2022-10-18T04:50:19.667Z,15.63
2022-10-18T04:53:07.329Z,16.58
2022-10-18T04:55:54.122Z,16.08
2022-10-18T04:58:40.762Z,16.05
2022-10-18T05:01:27.211Z,14.65
2022-10-18T05:04:14.078Z,15.38
2022-10-18T05:07:00.745Z,14.00
2022-10-18T05:09:48.594Z,14.63
2022-10-18T05:12:35.166Z,15.30
2022-10-18T05:15:21.567Z,13.63
2022-10-18T05:18:07.843Z,14.30
2022-10-18T05:20:54.088Z,14.30
2022-10-18T05:23:41.090Z,15.35
2022-10-18T05:26:29.282Z,14.60
2022-10-18T05:29:15.556Z,14.68
2022-10-18T05:32:02.093Z,15.05
2022-10-18T05:34:48.622Z,16.67
2022-10-18T05:37:35.070Z,15.93
2022-10-18T05:40:21.345Z,16.38
2022-10-18T05:43:09.051Z,16.73
2022-10-18T05:45:55.694Z,16.02
2022-10-18T05:48:41.930Z,16.98
2022-10-18T05:51:28.449Z,17.35
2022-10-18T05:54:15.145Z,17.60
2022-10-18T05:57:01.409Z,16.65
2022-10-18T05:59:49.295Z,16.33
2022-10-18T06:02:35.582Z,16.38
2022-10-18T06:05:21.914Z,14.68
2022-10-18T06:08:10.304Z,13.80
2022-10-18T06:10:57.454Z,13.55
2022-10-18T06:13:45.587Z,13.50
2022-10-18T06:16:33.377Z,12.93
2022-10-18T06:19:19.965Z,13.40
2022-10-18T06:22:06.209Z,12.95
2022-10-18T06:24:57.121Z,13.75
2022-10-18T06:27:44.030Z,12.93
2022-10-18T06:30:30.404Z,13.25
2022-10-18T06:33:17.924Z,13.32
2022-10-18T06:36:07.970Z,13.05
2022-10-18T06:38:56.323Z,14.32
2022-10-18T06:41:42.565Z,13.93
2022-10-18T06:44:29.117Z,13.50
2022-10-18T06:47:15.546Z,14.18
2022-10-18T06:50:03.457Z,14.93
2022-10-18T06:52:51.169Z,14.68
2022-10-18T06:55:37.664Z,12.80
2022-10-18T06:58:23.734Z,14.32
2022-10-18T07:01:12.918Z,13.45
2022-10-18T07:03:59.023Z,14.38
2022-10-18T07:06:46.902Z,12.77
2022-10-18T07:09:33.010Z,12.95
2022-10-18T07:12:19.497Z,13.20
2022-10-18T07:15:09.297Z,13.48
2022-10-18T07:17:56.241Z,13.60
2022-10-18T07:20:42.470Z,12.68
2022-10-18T07:23:30.593Z,11.57
2022-10-18T07:26:19.363Z,9.13
2022-10-18T07:29:08.121Z,9.57
2022-10-18T07:31:54.703Z,10.00
2022-10-18T07:34:41.458Z,10.07
2022-10-18T07:37:29.400Z,10.15
2022-10-18T07:40:17.962Z,10.30
2022-10-18T07:43:05.119Z,10.82
2022-10-18T07:45:53.290Z,10.70
2022-10-18T07:48:39.892Z,11.13
2022-10-18T07:51:27.746Z,11.80
2022-10-18T07:54:14.102Z,10.23
2022-10-18T07:57:01.955Z,11.52
2022-10-18T07:59:48.382Z,10.60
2022-10-18T08:02:34.703Z,7.70
2022-10-18T08:05:21.230Z,7.30
2022-10-18T08:08:08.215Z,7.15
2022-10-18T08:10:55.106Z,7.30
2022-10-18T08:13:43.139Z,6.95
2022-10-18T08:19:18.524Z,7.10
2022-10-18T08:22:04.982Z,7.10
2022-10-18T08:24:51.368Z,7.68
2022-10-18T08:27:37.843Z,7.10
2022-10-18T08:30:25.800Z,7.45
2022-10-18T08:33:12.145Z,7.07
2022-10-18T08:36:00.181Z,5.88
2022-10-18T08:38:46.670Z,4.88
2022-10-18T08:42:09.714Z,5.00
2022-10-18T08:44:57.030Z,4.40
2022-10-18T08:47:49.062Z,4.60
2022-10-18T08:50:38.657Z,3.88
2022-10-18T08:53:30.698Z,4.30
2022-10-18T08:56:21.609Z,4.60
2022-10-18T08:59:10.926Z,4.80
2022-10-18T09:02:05.466Z,4.22
2022-10-18T09:05:01.189Z,4.05
2022-10-18T09:08:12.539Z,4.00
2022-10-18T09:11:10.465Z,3.47
2022-10-18T09:14:06.837Z,3.60
2022-10-18T09:17:05.017Z,3.88
2022-10-18T09:20:04.053Z,3.22
2022-10-18T09:22:54.972Z,3.50
2022-10-18T09:25:46.071Z,2.95
2022-10-18T09:28:48.641Z,3.53
2022-10-18T09:31:45.945Z,3.58
2022-10-18T09:34:39.875Z,3.53
2022-10-18T09:37:30.171Z,3.28
2022-10-18T09:40:20.328Z,2.80
2022-10-18T09:43:13.090Z,2.75
2022-10-18T09:45:59.702Z,2.50
2022-10-18T09:48:50.504Z,2.53
2022-10-18T09:51:40.025Z,2.75
2022-10-18T09:54:33.966Z,2.75
2022-10-18T09:57:27.472Z,2.88
2022-10-18T10:00:17.992Z,2.38
2022-10-18T10:03:11.753Z,2.58
2022-10-18T10:06:17.450Z,2.30
2022-10-18T10:09:08.405Z,2.33
2022-10-18T10:11:56.967Z,2.50
2022-10-18T10:14:45.181Z,2.28
2022-10-18T10:17:34.493Z,2.40
2022-10-18T10:20:23.877Z,2.28
2022-10-18T10:26:24.409Z,2.22
2022-10-18T10:29:44.990Z,2.47
2022-10-18T10:32:45.219Z,2.78
2022-10-18T10:35:53.619Z,2.70
2022-10-18T10:38:40.765Z,2.67
2022-10-18T10:41:27.539Z,2.70
2022-10-18T10:44:17.683Z,2.58
2022-10-18T10:47:04.697Z,2.10
2022-10-18T10:49:52.567Z,2.85
2022-10-18T10:52:41.110Z,2.78
2022-10-18T10:55:35.564Z,2.70
2022-10-18T10:58:23.281Z,2.70
2022-10-18T11:01:24.817Z,3.10
2022-10-18T11:04:26.461Z,2.55
2022-10-18T11:07:22.573Z,2.75
2022-10-18T11:10:14.703Z,5.35
2022-10-18T11:13:05.308Z,4.50
2022-10-18T11:15:56.413Z,3.53
2022-10-18T11:18:47.246Z,3.20
2022-10-18T11:21:34.097Z,3.55
2022-10-18T11:24:22.690Z,3.25
2022-10-18T11:27:15.964Z,3.28
2022-10-18T11:30:22.373Z,3.22
2022-10-18T11:33:24.826Z,3.97
2022-10-18T11:36:21.915Z,4.30
2022-10-18T11:39:15.945Z,4.20
2022-10-18T11:42:12.503Z,4.35
2022-10-18T11:45:12.191Z,4.30
2022-10-18T11:48:06.750Z,4.55
2022-10-18T11:51:01.004Z,6.68
2022-10-18T11:54:00.836Z,4.60
2022-10-18T11:56:56.202Z,4.80
2022-10-18T11:59:55.773Z,4.78
2022-10-18T12:02:56.067Z,5.40
2022-10-18T12:05:45.643Z,5.50
2022-10-18T12:08:37.107Z,5.28
2022-10-18T12:11:29.052Z,5.85
2022-10-18T12:14:22.112Z,5.90
2022-10-18T12:17:41.809Z,6.20
2022-10-18T12:20:30.374Z,6.10
2022-10-18T12:23:19.119Z,7.00
2022-10-18T12:26:08.368Z,7.43
2022-10-18T12:29:07.220Z,8.38
2022-10-18T12:31:56.989Z,8.48
2022-10-18T12:34:47.562Z,7.68
2022-10-18T12:37:41.308Z,7.70
2022-10-18T12:40:37.237Z,6.70
2022-10-18T12:43:26.682Z,6.43
2022-10-18T12:46:14.007Z,5.28
2022-10-18T12:49:05.607Z,5.43
2022-10-18T12:51:55.063Z,5.90
2022-10-18T12:54:41.435Z,5.07
2022-10-18T12:58:17.705Z,5.38
2022-10-18T13:01:07.810Z,5.00
2022-10-18T13:03:56.198Z,5.25
2022-10-18T13:07:19.564Z,5.35
2022-10-18T13:10:35.251Z,5.40
2022-10-18T13:13:54.264Z,4.15
2022-10-18T13:16:47.110Z,4.03
2022-10-18T13:19:40.269Z,3.90
2022-10-18T13:22:43.423Z,4.18
2022-10-18T13:25:36.021Z,3.80
2022-10-18T13:28:29.680Z,4.97
2022-10-18T13:31:23.538Z,4.10
2022-10-18T13:34:27.881Z,4.85
2022-10-18T13:37:23.988Z,4.38
2022-10-18T13:40:24.538Z,7.90
2022-10-18T13:43:45.505Z,4.55
2022-10-18T13:47:20.384Z,3.95
2022-10-18T13:50:38.790Z,3.60
2022-10-18T13:53:51.766Z,4.10
2022-10-18T13:56:56.774Z,3.67
2022-10-18T14:00:18.973Z,3.67
2022-10-18T14:03:55.587Z,4.40
2022-10-18T14:06:41.626Z,3.60
2022-10-18T14:09:44.528Z,4.00
2022-10-18T14:12:38.902Z,3.47
2022-10-18T14:15:27.150Z,3.67
2022-10-18T14:18:17.124Z,4.38
2022-10-18T14:21:13.718Z,3.50
2022-10-18T14:24:02.863Z,4.25
2022-10-18T14:26:48.949Z,3.90
2022-10-18T14:29:35.397Z,4.20
2022-10-18T14:32:27.181Z,4.05
2022-10-18T14:35:32.124Z,5.13
2022-10-18T14:38:22.987Z,4.80
2022-10-18T14:41:16.895Z,3.90
2022-10-18T14:44:19.327Z,4.63
2022-10-18T14:47:16.115Z,4.38
2022-10-18T14:50:02.957Z,5.10
2022-10-18T14:52:49.741Z,4.88
2022-10-18T14:55:38.886Z,4.85
2022-10-18T14:58:26.598Z,5.18
2022-10-18T15:01:17.632Z,5.68
2022-10-18T15:04:07.810Z,5.40
2022-10-18T15:06:55.447Z,5.18
2022-10-18T15:09:43.063Z,5.57
2022-10-18T15:12:40.854Z,4.68
2022-10-18T15:15:40.138Z,5.00
2022-10-18T15:18:28.451Z,4.78
2022-10-18T15:21:23.525Z,4.82
2022-10-18T15:24:30.475Z,5.88
2022-10-18T15:27:27.032Z,5.38
2022-10-18T15:30:20.549Z,5.10
2022-10-18T15:33:10.090Z,5.25
2022-10-18T15:35:56.806Z,5.85
2022-10-18T15:38:46.296Z,7.20
2022-10-18T15:41:45.646Z,8.82
2022-10-18T15:44:34.810Z,6.32
2022-10-18T15:47:22.927Z,6.65
2022-10-18T15:50:37.243Z,6.70
2022-10-18T15:53:47.487Z,7.43
2022-10-18T15:56:34.645Z,7.35
2022-10-18T15:59:26.716Z,9.63
2022-10-18T16:02:15.165Z,14.02
2022-10-18T16:05:02.617Z,9.52
2022-10-18T16:07:53.942Z,7.90
2022-10-18T16:10:40.180Z,8.20
2022-10-18T16:13:27.398Z,8.30
2022-10-18T16:16:16.949Z,7.70
2022-10-18T16:19:03.242Z,8.02
2022-10-18T16:21:50.085Z,8.07
2022-10-18T16:24:37.917Z,7.55
2022-10-18T16:27:24.958Z,8.85
2022-10-18T16:30:15.135Z,8.15
2022-10-18T16:33:01.367Z,10.38
2022-10-18T16:35:47.933Z,9.07
2022-10-18T16:38:37.111Z,9.13
2022-10-18T16:41:25.452Z,9.60
2022-10-18T16:44:11.848Z,8.20
2022-10-18T16:46:58.402Z,9.65
2022-10-18T16:49:45.095Z,9.02
2022-10-18T16:52:31.577Z,9.18
2022-10-18T16:55:21.457Z,8.90
2022-10-18T16:58:15.118Z,8.07
2022-10-18T17:01:04.112Z,8.10
2022-10-18T17:03:54.122Z,8.38
2022-10-18T17:06:40.411Z,8.60
2022-10-18T17:09:27.489Z,8.45
2022-10-18T17:12:13.787Z,8.38
2022-10-18T17:15:01.670Z,7.68
2022-10-18T17:17:49.845Z,8.55
2022-10-18T17:20:36.192Z,8.93
2022-10-18T17:23:22.893Z,9.40
2022-10-18T17:26:27.957Z,9.63
2022-10-18T17:29:15.816Z,10.20
2022-10-18T17:32:04.295Z,10.85
2022-10-18T17:34:50.849Z,11.57
2022-10-18T17:37:38.880Z,11.32
2022-10-18T17:40:27.839Z,9.82
2022-10-18T17:43:14.397Z,10.13
2022-10-18T17:46:00.642Z,10.00
2022-10-18T17:48:48.813Z,11.25
2022-10-18T17:51:35.520Z,11.18
2022-10-18T17:54:21.890Z,11.27
2022-10-18T17:57:08.318Z,12.57
2022-10-18T17:59:56.207Z,12.45
2022-10-18T18:02:43.516Z,14.48
2022-10-18T18:05:34.646Z,13.48
2022-10-18T18:08:20.950Z,13.90
2022-10-18T18:11:07.433Z,17.15
2022-10-18T18:13:55.713Z,18.50
2022-10-18T18:16:43.493Z,17.83
2022-10-18T18:19:29.742Z,17.83
2022-10-18T18:22:17.400Z,21.85
2022-10-18T18:25:03.658Z,21.83
2022-10-18T18:27:50.122Z,27.52
2022-10-18T18:30:39.829Z,22.63
2022-10-18T18:33:26.050Z,25.17
2022-10-18T18:36:13.118Z,20.25
2022-10-18T18:39:01.223Z,16.55
2022-10-18T18:41:49.515Z,16.60
2022-10-18T18:44:35.928Z,17.90
2022-10-18T18:47:23.421Z,17.23
2022-10-18T18:50:10.582Z,15.07
2022-10-18T18:52:58.879Z,15.68
2022-10-18T18:55:46.486Z,15.55
2022-10-18T18:58:33.609Z,13.43
2022-10-18T19:01:22.100Z,13.02
2022-10-18T19:04:09.833Z,12.18
2022-10-18T19:06:56.033Z,11.65
2022-10-18T19:09:44.417Z,10.65
2022-10-18T19:12:32.176Z,12.05
2022-10-18T19:15:19.525Z,11.48
2022-10-18T19:18:06.066Z,13.00
2022-10-18T19:20:52.373Z,12.18
2022-10-18T19:23:38.716Z,11.07
2022-10-18T19:26:31.917Z,11.45
2022-10-18T19:29:22.244Z,11.25
2022-10-18T19:32:12.006Z,11.10
2022-10-18T19:34:58.474Z,11.05
2022-10-18T19:37:44.890Z,11.65
2022-10-18T19:40:31.180Z,10.75
2022-10-18T19:43:17.488Z,10.82
2022-10-18T19:46:05.690Z,11.13
2022-10-18T19:48:53.998Z,11.70
2022-10-18T19:51:41.077Z,11.95
2022-10-18T19:54:29.418Z,11.43
2022-10-18T19:57:15.667Z,11.52
2022-10-18T20:00:03.477Z,11.45
2022-10-18T20:02:53.390Z,11.23
2022-10-18T20:05:39.887Z,11.13
2022-10-18T20:08:27.901Z,10.82
2022-10-18T20:11:17.070Z,11.85
2022-10-18T20:14:05.359Z,11.38
2022-10-18T20:16:51.634Z,11.52
2022-10-18T20:19:39.532Z,11.45
2022-10-18T20:22:25.862Z,10.88
2022-10-18T20:25:12.517Z,11.13
2022-10-18T20:27:58.583Z,11.93
2022-10-18T20:30:45.098Z,13.80
2022-10-18T20:33:32.003Z,12.83
2022-10-18T20:36:20.337Z,13.20
2022-10-18T20:39:07.708Z,13.47
2022-10-18T20:41:54.004Z,12.83
2022-10-18T20:44:43.241Z,13.83
2022-10-18T20:47:29.650Z,14.63
2022-10-18T20:50:15.947Z,12.03
2022-10-18T20:53:03.956Z,12.27
2022-10-18T20:55:50.836Z,11.17
2022-10-18T20:58:39.545Z,10.67
2022-10-18T21:01:28.039Z,10.50
2022-10-18T21:04:14.905Z,10.63
2022-10-18T21:07:01.364Z,10.57
2022-10-18T21:09:49.018Z,8.97
2022-10-18T21:12:35.557Z,10.17
2022-10-18T21:15:22.422Z,9.63
2022-10-18T21:18:08.805Z,9.30
2022-10-18T21:20:55.864Z,9.20
2022-10-18T21:23:42.680Z,9.07
2022-10-18T21:26:30.934Z,9.13
2022-10-18T21:29:22.011Z,8.67
2022-10-18T21:32:09.179Z,8.57
2022-10-18T21:34:55.385Z,8.53
2022-10-18T21:37:41.910Z,9.00
2022-10-18T21:40:28.491Z,8.80
2022-10-18T21:43:16.267Z,8.13
2022-10-18T21:46:02.660Z,8.83
2022-10-18T21:48:50.509Z,8.33
2022-10-18T21:51:37.537Z,8.10
2022-10-18T21:54:23.753Z,8.47
2022-10-18T21:57:10.026Z,8.47
2022-10-18T21:59:57.923Z,8.30
2022-10-18T22:02:44.350Z,7.70
2022-10-18T22:05:30.913Z,7.57
2022-10-18T22:08:17.190Z,7.67
2022-10-18T22:11:03.805Z,8.00
2022-10-18T22:13:50.614Z,8.03
2022-10-18T22:16:38.294Z,7.40
2022-10-18T22:19:24.429Z,7.30
2022-10-18T22:22:11.127Z,7.63
2022-10-18T22:24:58.044Z,7.40
2022-10-18T22:27:44.566Z,8.10
2022-10-18T22:30:30.862Z,7.07
2022-10-18T22:33:18.693Z,7.77
2022-10-18T22:36:04.905Z,7.43
2022-10-18T22:38:51.634Z,7.83
2022-10-18T22:41:38.332Z,7.73
2022-10-18T22:44:25.206Z,6.70
2022-10-18T22:47:11.733Z,6.80
2022-10-18T22:49:59.586Z,7.10
2022-10-18T22:52:45.743Z,7.10
2022-10-18T22:55:32.102Z,6.67
2022-10-18T22:58:19.037Z,7.07
2022-10-18T23:01:07.109Z,7.23
2022-10-18T23:03:54.083Z,7.80
2022-10-18T23:06:41.730Z,7.20
2022-10-18T23:09:28.149Z,7.63
2022-10-18T23:12:14.238Z,7.27
2022-10-18T23:15:00.619Z,7.60
2022-10-18T23:17:47.787Z,7.20
2022-10-18T23:20:34.248Z,7.10
2022-10-18T23:23:22.048Z,7.67
2022-10-18T23:26:10.358Z,7.83
2022-10-18T23:28:56.976Z,7.33
2022-10-18T23:31:43.584Z,6.93
2022-10-18T23:34:30.180Z,8.10
2022-10-18T23:37:16.345Z,7.50
2022-10-18T23:40:04.253Z,7.20
2022-10-18T23:42:50.845Z,7.20
2022-10-18T23:45:37.489Z,7.13
2022-10-18T23:48:23.562Z,7.10
2022-10-18T23:51:10.498Z,7.80
2022-10-18T23:53:57.041Z,6.73
2022-10-18T23:56:44.854Z,6.10
2022-10-18T23:59:31.721Z,6.07
